sensor_id;sensor_type;location;lat;lon;timestamp;pressure;altitude;pressure_sealevel;temperature;humidity
4398;BME280;2213;49.720;7.296;2024-02-14T00:00:33;98344.78;;;4.76;100.00
4398;BME280;2213;49.720;7.296;2024-02-14T00:03:03;98348.06;;;4.78;100.00
4398;BME280;2213;49.720;7.296;2024-02-14T00:05:33;98345.19;;;4.81;100.00
4398;BME280;2213;49.720;7.296;2024-02-14T00:08:02;98345.31;;;4.79;100.00
4398;BME280;2213;49.720;7.296;2024-02-14T00:10:30;98343.59;;;4.70;100.00
4398;BME280;2213;49.720;7.296;2024-02-14T00:12:59;98334.34;;;4.68;100.00
4398;BME280;2213;49.720;7.296;2024-02-14T00:15:27;98335.59;;;4.64;100.00
4398;BME280;2213;49.720;7.296;2024-02-14T00:17:56;98335.91;;;4.51;100.00
4398;BME280;2213;49.720;7.296;2024-02-14T00:20:26;98331.94;;;4.56;100.00
4398;BME280;2213;49.720;7.296;2024-02-14T00:22:54;98329.75;;;4.62;100.00
4398;BME280;2213;49.720;7.296;2024-02-14T00:25:23;98326.34;;;4.61;100.00
4398;BME280;2213;49.720;7.296;2024-02-14T00:27:51;98328.91;;;4.61;100.00
4398;BME280;2213;49.720;7.296;2024-02-14T00:30:23;98342.03;;;4.50;100.00
4398;BME280;2213;49.720;7.296;2024-02-14T00:32:54;98334.84;;;4.34;100.00
4398;BME280;2213;49.720;7.296;2024-02-14T00:35:26;98342.50;;;4.36;100.00
4398;BME280;2213;49.720;7.296;2024-02-14T00:37:54;98343.59;;;4.33;100.00
4398;BME280;2213;49.720;7.296;2024-02-14T00:40:23;98344.13;;;4.37;100.00
4398;BME280;2213;49.720;7.296;2024-02-14T00:42:51;98332.50;;;4.41;100.00
4398;BME280;2213;49.720;7.296;2024-02-14T00:45:20;98332.50;;;4.41;100.00
4398;BME280;2213;49.720;7.296;2024-02-14T00:47:48;98335.25;;;4.39;100.00
4398;BME280;2213;49.720;7.296;2024-02-14T00:50:17;98314.94;;;4.44;100.00
4398;BME280;2213;49.720;7.296;2024-02-14T00:52:47;98315.75;;;4.45;100.00
4398;BME280;2213;49.720;7.296;2024-02-14T00:55:15;98319.56;;;4.50;100.00
4398;BME280;2213;49.720;7.296;2024-02-14T00:57:43;98312.34;;;4.44;100.00
4398;BME280;2213;49.720;7.296;2024-02-14T01:00:12;98309.75;;;4.44;100.00
4398;BME280;2213;49.720;7.296;2024-02-14T01:02:44;98316.00;;;4.51;100.00
4398;BME280;2213;49.720;7.296;2024-02-14T01:05:12;98315.63;;;4.46;100.00
4398;BME280;2213;49.720;7.296;2024-02-14T01:07:41;98316.69;;;4.53;100.00
4398;BME280;2213;49.720;7.296;2024-02-14T01:10:11;98304.09;;;4.58;100.00
4398;BME280;2213;49.720;7.296;2024-02-14T01:12:39;98298.25;;;4.56;100.00
4398;BME280;2213;49.720;7.296;2024-02-14T01:15:09;98300.97;;;4.55;100.00
4398;BME280;2213;49.720;7.296;2024-02-14T01:17:37;98292.13;;;4.57;100.00
4398;BME280;2213;49.720;7.296;2024-02-14T01:20:07;98290.59;;;4.65;100.00
4398;BME280;2213;49.720;7.296;2024-02-14T01:22:36;98286.09;;;4.67;100.00
4398;BME280;2213;49.720;7.296;2024-02-14T01:25:06;98289.50;;;4.67;100.00
4398;BME280;2213;49.720;7.296;2024-02-14T01:27:35;98276.13;;;4.72;100.00
4398;BME280;2213;49.720;7.296;2024-02-14T01:30:05;98280.03;;;4.76;100.00
4398;BME280;2213;49.720;7.296;2024-02-14T01:32:34;98282.06;;;4.82;100.00
4398;BME280;2213;49.720;7.296;2024-02-14T01:35:03;98277.19;;;4.79;100.00
4398;BME280;2213;49.720;7.296;2024-02-14T01:37:32;98277.00;;;4.80;100.00
4398;BME280;2213;49.720;7.296;2024-02-14T01:40:00;98272.75;;;4.89;100.00
4398;BME280;2213;49.720;7.296;2024-02-14T01:42:30;98268.53;;;4.88;100.00
4398;BME280;2213;49.720;7.296;2024-02-14T01:45:00;98262.38;;;4.89;100.00
4398;BME280;2213;49.720;7.296;2024-02-14T01:47:30;98261.19;;;4.83;100.00
4398;BME280;2213;49.720;7.296;2024-02-14T01:50:00;98262.94;;;4.83;100.00
4398;BME280;2213;49.720;7.296;2024-02-14T01:52:29;98257.34;;;4.87;100.00
4398;BME280;2213;49.720;7.296;2024-02-14T01:54:59;98263.34;;;4.88;100.00
4398;BME280;2213;49.720;7.296;2024-02-14T01:57:28;98262.38;;;4.89;100.00
4398;BME280;2213;49.720;7.296;2024-02-14T01:59:59;98262.09;;;4.92;100.00
4398;BME280;2213;49.720;7.296;2024-02-14T02:02:28;98265.03;;;4.97;100.00
4398;BME280;2213;49.720;7.296;2024-02-14T02:04:56;98261.81;;;4.95;100.00
4398;BME280;2213;49.720;7.296;2024-02-14T02:07:25;98265.34;;;4.94;100.00
4398;BME280;2213;49.720;7.296;2024-02-14T02:09:53;98267.06;;;5.03;100.00
4398;BME280;2213;49.720;7.296;2024-02-14T02:12:22;98268.53;;;5.05;100.00
4398;BME280;2213;49.720;7.296;2024-02-14T02:14:54;98271.28;;;5.04;100.00
4398;BME280;2213;49.720;7.296;2024-02-14T02:17:24;98267.13;;;5.11;100.00
4398;BME280;2213;49.720;7.296;2024-02-14T02:19:53;98265.88;;;5.15;100.00
4398;BME280;2213;49.720;7.296;2024-02-14T02:22:22;98266.28;;;5.20;100.00
4398;BME280;2213;49.720;7.296;2024-02-14T02:24:52;98264.63;;;5.19;100.00
4398;BME280;2213;49.720;7.296;2024-02-14T02:27:20;98266.28;;;5.20;100.00
4398;BME280;2213;49.720;7.296;2024-02-14T02:29:49;98267.88;;;5.21;100.00
4398;BME280;2213;49.720;7.296;2024-02-14T02:32:17;98269.22;;;5.25;100.00
4398;BME280;2213;49.720;7.296;2024-02-14T02:34:46;98267.81;;;5.31;100.00
4398;BME280;2213;49.720;7.296;2024-02-14T02:37:14;98266.03;;;5.31;100.00
4398;BME280;2213;49.720;7.296;2024-02-14T02:39:43;98267.66;;;5.32;100.00
4398;BME280;2213;49.720;7.296;2024-02-14T02:42:13;98268.34;;;5.34;100.00
4398;BME280;2213;49.720;7.296;2024-02-14T02:44:42;98262.56;;;5.40;100.00
4398;BME280;2213;49.720;7.296;2024-02-14T02:47:10;98269.09;;;5.44;100.00
4398;BME280;2213;49.720;7.296;2024-02-14T02:49:39;98265.66;;;5.44;100.00
4398;BME280;2213;49.720;7.296;2024-02-14T02:52:09;98265.72;;;5.52;100.00
4398;BME280;2213;49.720;7.296;2024-02-14T02:54:38;98262.97;;;5.53;100.00
4398;BME280;2213;49.720;7.296;2024-02-14T02:57:08;98267.22;;;5.54;100.00
4398;BME280;2213;49.720;7.296;2024-02-14T02:59:38;98268.81;;;5.55;100.00
4398;BME280;2213;49.720;7.296;2024-02-14T03:02:10;98265.28;;;5.56;100.00
4398;BME280;2213;49.720;7.296;2024-02-14T03:04:39;98262.53;;;5.58;100.00
4398;BME280;2213;49.720;7.296;2024-02-14T03:07:18;98264.66;;;5.63;100.00
4398;BME280;2213;49.720;7.296;2024-02-14T03:09:48;98265.03;;;5.68;100.00
4398;BME280;2213;49.720;7.296;2024-02-14T03:12:16;98267.84;;;5.74;100.00
4398;BME280;2213;49.720;7.296;2024-02-14T03:14:47;98260.28;;;5.81;100.00
4398;BME280;2213;49.720;7.296;2024-02-14T03:17:16;98255.47;;;5.86;100.00
4398;BME280;2213;49.720;7.296;2024-02-14T03:19:45;98255.81;;;5.91;100.00
4398;BME280;2213;49.720;7.296;2024-02-14T03:22:15;98251.97;;;5.95;100.00
4398;BME280;2213;49.720;7.296;2024-02-14T03:24:46;98260.13;;;6.00;100.00
4398;BME280;2213;49.720;7.296;2024-02-14T03:27:14;98259.63;;;6.04;100.00
4398;BME280;2213;49.720;7.296;2024-02-14T03:29:44;98259.19;;;6.09;100.00
4398;BME280;2213;49.720;7.296;2024-02-14T03:32:17;98259.69;;;6.13;100.00
4398;BME280;2213;49.720;7.296;2024-02-14T03:34:46;98261.84;;;6.17;100.00
4398;BME280;2213;49.720;7.296;2024-02-14T03:37:15;98264.25;;;6.19;100.00
4398;BME280;2213;49.720;7.296;2024-02-14T03:39:44;98255.88;;;6.25;100.00
4398;BME280;2213;49.720;7.296;2024-02-14T03:42:14;98264.16;;;6.28;100.00
4398;BME280;2213;49.720;7.296;2024-02-14T03:44:43;98266.28;;;6.33;100.00
4398;BME280;2213;49.720;7.296;2024-02-14T03:47:13;98272.00;;;6.36;100.00
4398;BME280;2213;49.720;7.296;2024-02-14T03:49:43;98274.28;;;6.39;100.00
4398;BME280;2213;49.720;7.296;2024-02-14T03:52:11;98277.38;;;6.43;100.00
4398;BME280;2213;49.720;7.296;2024-02-14T03:54:40;98283.06;;;6.46;100.00
4398;BME280;2213;49.720;7.296;2024-02-14T03:57:08;98277.75;;;6.48;100.00
4398;BME280;2213;49.720;7.296;2024-02-14T03:59:37;98285.22;;;6.51;100.00
4398;BME280;2213;49.720;7.296;2024-02-14T04:02:06;98290.28;;;6.52;100.00
4398;BME280;2213;49.720;7.296;2024-02-14T04:04:37;98290.91;;;6.54;100.00
4398;BME280;2213;49.720;7.296;2024-02-14T04:07:08;98299.34;;;6.56;100.00
4398;BME280;2213;49.720;7.296;2024-02-14T04:09:37;98301.00;;;6.57;100.00
4398;BME280;2213;49.720;7.296;2024-02-14T04:12:06;98299.72;;;6.62;100.00
4398;BME280;2213;49.720;7.296;2024-02-14T04:14:37;98292.88;;;6.61;100.00
4398;BME280;2213;49.720;7.296;2024-02-14T04:17:06;98290.28;;;6.61;100.00
4398;BME280;2213;49.720;7.296;2024-02-14T04:19:35;98277.16;;;6.62;100.00
4398;BME280;2213;49.720;7.296;2024-02-14T04:22:04;98273.56;;;6.63;100.00
4398;BME280;2213;49.720;7.296;2024-02-14T04:24:35;98275.69;;;6.68;100.00
4398;BME280;2213;49.720;7.296;2024-02-14T04:27:03;98273.78;;;6.70;100.00
4398;BME280;2213;49.720;7.296;2024-02-14T04:29:33;98280.59;;;6.71;100.00
4398;BME280;2213;49.720;7.296;2024-02-14T04:32:03;98277.84;;;6.72;100.00
4398;BME280;2213;49.720;7.296;2024-02-14T04:34:31;98280.59;;;6.71;100.00
4398;BME280;2213;49.720;7.296;2024-02-14T04:37:00;98284.69;;;6.73;100.00
4398;BME280;2213;49.720;7.296;2024-02-14T04:39:29;98283.69;;;6.74;100.00
4398;BME280;2213;49.720;7.296;2024-02-14T04:41:59;98286.28;;;6.74;100.00
4398;BME280;2213;49.720;7.296;2024-02-14T04:44:29;98293.13;;;6.75;100.00
4398;BME280;2213;49.720;7.296;2024-02-14T04:46:58;98290.38;;;6.77;100.00
4398;BME280;2213;49.720;7.296;2024-02-14T04:49:27;98286.78;;;6.78;100.00
4398;BME280;2213;49.720;7.296;2024-02-14T04:51:57;98280.47;;;6.80;100.00
4398;BME280;2213;49.720;7.296;2024-02-14T04:54:26;98299.31;;;6.82;100.00
4398;BME280;2213;49.720;7.296;2024-02-14T04:56:55;98304.66;;;6.81;100.00
4398;BME280;2213;49.720;7.296;2024-02-14T04:59:30;98310.53;;;6.83;100.00
4398;BME280;2213;49.720;7.296;2024-02-14T05:01:59;98314.91;;;6.82;100.00
4398;BME280;2213;49.720;7.296;2024-02-14T05:04:27;98317.34;;;6.84;100.00
4398;BME280;2213;49.720;7.296;2024-02-14T05:06:57;98311.19;;;6.85;100.00
4398;BME280;2213;49.720;7.296;2024-02-14T05:09:26;98308.75;;;6.83;100.00
4398;BME280;2213;49.720;7.296;2024-02-14T05:11:54;98305.00;;;6.86;100.00
4398;BME280;2213;49.720;7.296;2024-02-14T05:14:23;98308.25;;;6.88;100.00
4398;BME280;2213;49.720;7.296;2024-02-14T05:16:53;98315.91;;;6.89;100.00
4398;BME280;2213;49.720;7.296;2024-02-14T05:19:23;98315.09;;;6.89;100.00
4398;BME280;2213;49.720;7.296;2024-02-14T05:21:52;98313.47;;;6.88;100.00
4398;BME280;2213;49.720;7.296;2024-02-14T05:24:20;98309.75;;;6.90;100.00
4398;BME280;2213;49.720;7.296;2024-02-14T05:26:49;98303.56;;;6.91;100.00
4398;BME280;2213;49.720;7.296;2024-02-14T05:29:19;98301.78;;;6.92;100.00
4398;BME280;2213;49.720;7.296;2024-02-14T05:31:48;98300.81;;;6.93;100.00
4398;BME280;2213;49.720;7.296;2024-02-14T05:34:18;98300.00;;;6.92;100.00
4398;BME280;2213;49.720;7.296;2024-02-14T05:36:47;98311.84;;;6.95;100.00
4398;BME280;2213;49.720;7.296;2024-02-14T05:39:15;98303.56;;;6.91;100.00
4398;BME280;2213;49.720;7.296;2024-02-14T05:41:44;98307.78;;;6.92;100.00
4398;BME280;2213;49.720;7.296;2024-02-14T05:44:16;98306.97;;;6.92;100.00
4398;BME280;2213;49.720;7.296;2024-02-14T05:46:44;98310.91;;;6.96;100.00
4398;BME280;2213;49.720;7.296;2024-02-14T05:49:13;98309.13;;;6.96;100.00
4398;BME280;2213;49.720;7.296;2024-02-14T05:51:43;98308.63;;;6.93;100.00
4398;BME280;2213;49.720;7.296;2024-02-14T05:54:12;98308.94;;;6.98;100.00
4398;BME280;2213;49.720;7.296;2024-02-14T05:56:41;98303.44;;;7.01;100.00
4398;BME280;2213;49.720;7.296;2024-02-14T05:59:10;98302.13;;;6.97;100.00
4398;BME280;2213;49.720;7.296;2024-02-14T06:01:39;98303.59;;;6.99;100.00
4398;BME280;2213;49.720;7.296;2024-02-14T06:04:07;98295.94;;;6.98;100.00
4398;BME280;2213;49.720;7.296;2024-02-14T06:06:36;98303.75;;;6.98;100.00
4398;BME280;2213;49.720;7.296;2024-02-14T06:09:09;98308.94;;;6.98;100.00
4398;BME280;2213;49.720;7.296;2024-02-14T06:11:39;98313.84;;;7.01;100.00
4398;BME280;2213;49.720;7.296;2024-02-14T06:14:08;98313.84;;;7.01;100.00
4398;BME280;2213;49.720;7.296;2024-02-14T06:16:37;98309.28;;;7.03;100.00
4398;BME280;2213;49.720;7.296;2024-02-14T06:19:06;98316.13;;;7.04;100.00
4398;BME280;2213;49.720;7.296;2024-02-14T06:21:37;98316.78;;;7.06;100.00
4398;BME280;2213;49.720;7.296;2024-02-14T06:24:07;98321.00;;;7.07;100.00
4398;BME280;2213;49.720;7.296;2024-02-14T06:26:37;98328.50;;;7.10;100.00
4398;BME280;2213;49.720;7.296;2024-02-14T06:29:06;98329.44;;;7.09;100.00
4398;BME280;2213;49.720;7.296;2024-02-14T06:31:34;98329.13;;;7.12;100.00
4398;BME280;2213;49.720;7.296;2024-02-14T06:34:03;98330.78;;;7.13;100.00
4398;BME280;2213;49.720;7.296;2024-02-14T06:36:34;98326.53;;;7.12;100.00
4398;BME280;2213;49.720;7.296;2024-02-14T06:39:04;98322.31;;;7.11;100.00
4398;BME280;2213;49.720;7.296;2024-02-14T06:41:36;98331.72;;;7.12;100.00
4398;BME280;2213;49.720;7.296;2024-02-14T06:44:04;98331.72;;;7.12;100.00
4398;BME280;2213;49.720;7.296;2024-02-14T06:46:33;98331.41;;;7.15;100.00
4398;BME280;2213;49.720;7.296;2024-02-14T06:49:02;98339.56;;;7.20;100.00
4398;BME280;2213;49.720;7.296;2024-02-14T06:51:31;98343.13;;;7.19;100.00
4398;BME280;2213;49.720;7.296;2024-02-14T06:54:00;98346.06;;;7.16;100.00
4398;BME280;2213;49.720;7.296;2024-02-14T06:56:30;98340.84;;;7.16;100.00
4398;BME280;2213;49.720;7.296;2024-02-14T06:59:00;98351.25;;;7.16;100.00
4398;BME280;2213;49.720;7.296;2024-02-14T07:01:30;98347.00;;;7.15;100.00
4398;BME280;2213;49.720;7.296;2024-02-14T07:03:59;98350.28;;;7.17;100.00
4398;BME280;2213;49.720;7.296;2024-02-14T07:06:28;98347.38;;;7.20;100.00
4398;BME280;2213;49.720;7.296;2024-02-14T07:08:57;98360.50;;;7.19;100.00
4398;BME280;2213;49.720;7.296;2024-02-14T07:11:25;98366.22;;;7.22;100.00
4398;BME280;2213;49.720;7.296;2024-02-14T07:13:54;98359.09;;;7.24;100.00
4398;BME280;2213;49.720;7.296;2024-02-14T07:16:24;98351.28;;;7.24;100.00
4398;BME280;2213;49.720;7.296;2024-02-14T07:18:53;98362.00;;;7.21;100.00
4398;BME280;2213;49.720;7.296;2024-02-14T07:21:22;98364.59;;;7.21;100.00
4398;BME280;2213;49.720;7.296;2024-02-14T07:23:51;98360.88;;;7.24;100.00
4398;BME280;2213;49.720;7.296;2024-02-14T07:26:21;98365.75;;;7.27;100.00
4398;BME280;2213;49.720;7.296;2024-02-14T07:28:49;98363.16;;;7.27;100.00
4398;BME280;2213;49.720;7.296;2024-02-14T07:31:18;98365.59;;;7.28;100.00
4398;BME280;2213;49.720;7.296;2024-02-14T07:33:49;98367.22;;;7.29;100.00
4398;BME280;2213;49.720;7.296;2024-02-14T07:36:20;98374.22;;;7.37;100.00
4398;BME280;2213;49.720;7.296;2024-02-14T07:38:49;98375.69;;;7.39;100.00
4398;BME280;2213;49.720;7.296;2024-02-14T07:41:18;98386.59;;;7.43;100.00
4398;BME280;2213;49.720;7.296;2024-02-14T07:43:47;98378.50;;;7.46;100.00
4398;BME280;2213;49.720;7.296;2024-02-14T07:46:18;98379.47;;;7.45;100.00
4398;BME280;2213;49.720;7.296;2024-02-14T07:48:48;98388.22;;;7.44;100.00
4398;BME280;2213;49.720;7.296;2024-02-14T07:51:19;98388.91;;;7.46;100.00
4398;BME280;2213;49.720;7.296;2024-02-14T07:53:49;98392.50;;;7.53;100.00
4398;BME280;2213;49.720;7.296;2024-02-14T07:56:18;98397.22;;;7.49;100.00
4398;BME280;2213;49.720;7.296;2024-02-14T07:58:47;98389.72;;;7.54;100.00
4398;BME280;2213;49.720;7.296;2024-02-14T08:01:17;98386.97;;;7.56;100.00
4398;BME280;2213;49.720;7.296;2024-02-14T08:03:48;98389.91;;;7.61;100.00
4398;BME280;2213;49.720;7.296;2024-02-14T08:06:17;98382.91;;;7.62;100.00
4398;BME280;2213;49.720;7.296;2024-02-14T08:08:46;98382.59;;;7.65;100.00
4398;BME280;2213;49.720;7.296;2024-02-14T08:11:16;98380.81;;;7.65;100.00
4398;BME280;2213;49.720;7.296;2024-02-14T08:13:44;98383.91;;;7.69;100.00
4398;BME280;2213;49.720;7.296;2024-02-14T08:16:13;98386.50;;;7.69;100.00
4398;BME280;2213;49.720;7.296;2024-02-14T08:18:42;98384.53;;;7.71;100.00
4398;BME280;2213;49.720;7.296;2024-02-14T08:21:13;98388.78;;;7.72;100.00
4398;BME280;2213;49.720;7.296;2024-02-14T08:23:41;98383.25;;;7.75;100.00
4398;BME280;2213;49.720;7.296;2024-02-14T08:26:12;98392.06;;;7.74;100.00
4398;BME280;2213;49.720;7.296;2024-02-14T08:28:41;98388.47;;;7.75;100.00
4398;BME280;2213;49.720;7.296;2024-02-14T08:31:12;98392.56;;;7.77;100.00
4398;BME280;2213;49.720;7.296;2024-02-14T08:33:41;98394.84;;;7.80;100.00
4398;BME280;2213;49.720;7.296;2024-02-14T08:36:11;98397.25;;;7.82;100.00
4398;BME280;2213;49.720;7.296;2024-02-14T08:38:40;98396.94;;;7.85;100.00
4398;BME280;2213;49.720;7.296;2024-02-14T08:41:08;98396.63;;;7.88;100.00
4398;BME280;2213;49.720;7.296;2024-02-14T08:43:37;98392.88;;;7.90;100.00
4398;BME280;2213;49.720;7.296;2024-02-14T08:46:10;98395.97;;;7.94;100.00
4398;BME280;2213;49.720;7.296;2024-02-14T08:48:38;98391.25;;;7.97;100.00
4398;BME280;2213;49.720;7.296;2024-02-14T08:51:17;98401.69;;;7.97;100.00
4398;BME280;2213;49.720;7.296;2024-02-14T08:53:47;98401.69;;;7.97;100.00
4398;BME280;2213;49.720;7.296;2024-02-14T08:56:16;98402.16;;;8.01;100.00
4398;BME280;2213;49.720;7.296;2024-02-14T08:58:45;98396.97;;;8.01;100.00
4398;BME280;2213;49.720;7.296;2024-02-14T09:01:14;98398.28;;;8.05;100.00
4398;BME280;2213;49.720;7.296;2024-02-14T09:03:43;98398.91;;;8.07;100.00
4398;BME280;2213;49.720;7.296;2024-02-14T09:06:18;98400.69;;;8.06;100.00
4398;BME280;2213;49.720;7.296;2024-02-14T09:08:47;98401.03;;;8.12;100.00
4398;BME280;2213;49.720;7.296;2024-02-14T09:11:18;98400.03;;;8.13;100.00
4398;BME280;2213;49.720;7.296;2024-02-14T09:13:47;98402.50;;;8.14;100.00
4398;BME280;2213;49.720;7.296;2024-02-14T09:16:18;98399.56;;;8.17;100.00
4398;BME280;2213;49.720;7.296;2024-02-14T09:18:46;98403.00;;;8.18;100.00
4398;BME280;2213;49.720;7.296;2024-02-14T09:21:15;98406.06;;;8.21;100.00
4398;BME280;2213;49.720;7.296;2024-02-14T09:23:47;98410.31;;;8.22;100.00
4398;BME280;2213;49.720;7.296;2024-02-14T09:26:15;98411.59;;;8.26;100.00
4398;BME280;2213;49.720;7.296;2024-02-14T09:28:44;98406.91;;;8.30;100.00
4398;BME280;2213;49.720;7.296;2024-02-14T09:31:18;98419.44;;;8.34;100.00
4398;BME280;2213;49.720;7.296;2024-02-14T09:33:47;98421.25;;;8.34;100.00
4398;BME280;2213;49.720;7.296;2024-02-14T09:36:16;98414.72;;;8.30;100.00
4398;BME280;2213;49.720;7.296;2024-02-14T09:38:48;98425.00;;;8.31;100.00
4398;BME280;2213;49.720;7.296;2024-02-14T09:41:25;98428.41;;;8.32;100.00
4398;BME280;2213;49.720;7.296;2024-02-14T09:43:54;98420.91;;;8.37;100.00
4398;BME280;2213;49.720;7.296;2024-02-14T09:46:25;98431.19;;;8.38;100.00
4398;BME280;2213;49.720;7.296;2024-02-14T09:48:54;98424.00;;;8.40;100.00
4398;BME280;2213;49.720;7.296;2024-02-14T09:51:25;98426.59;;;8.40;100.00
4398;BME280;2213;49.720;7.296;2024-02-14T09:53:55;98431.53;;;8.43;100.00
4398;BME280;2213;49.720;7.296;2024-02-14T09:56:25;98432.78;;;8.47;100.00
4398;BME280;2213;49.720;7.296;2024-02-14T09:58:55;98431.81;;;8.48;100.00
4398;BME280;2213;49.720;7.296;2024-02-14T10:01:25;98438.00;;;8.47;100.00
4398;BME280;2213;49.720;7.296;2024-02-14T10:03:56;98438.69;;;8.49;100.00
4398;BME280;2213;49.720;7.296;2024-02-14T10:06:25;98443.56;;;8.52;100.00
4398;BME280;2213;49.720;7.296;2024-02-14T10:08:55;98443.38;;;8.54;100.00
4398;BME280;2213;49.720;7.296;2024-02-14T10:11:31;98447.47;;;8.56;100.00
4398;BME280;2213;49.720;7.296;2024-02-14T10:14:00;98453.66;;;8.55;100.00
4398;BME280;2213;49.720;7.296;2024-02-14T10:16:31;98456.59;;;8.61;100.00
4398;BME280;2213;49.720;7.296;2024-02-14T10:19:00;98452.66;;;8.65;100.00
4398;BME280;2213;49.720;7.296;2024-02-14T10:21:29;98456.41;;;8.62;100.00
4398;BME280;2213;49.720;7.296;2024-02-14T10:24:02;98463.06;;;8.65;100.00
4398;BME280;2213;49.720;7.296;2024-02-14T10:26:31;98449.75;;;8.68;100.00
4398;BME280;2213;49.720;7.296;2024-02-14T10:29:00;98450.03;;;8.65;100.00
4398;BME280;2213;49.720;7.296;2024-02-14T10:31:28;98453.66;;;8.64;100.00
4398;BME280;2213;49.720;7.296;2024-02-14T10:33:58;98452.34;;;8.68;100.00
4398;BME280;2213;49.720;7.296;2024-02-14T10:36:27;98458.03;;;8.71;100.00
4398;BME280;2213;49.720;7.296;2024-02-14T10:38:58;98456.06;;;8.73;100.00
4398;BME280;2213;49.720;7.296;2024-02-14T10:41:30;98459.84;;;8.71;100.00
4398;BME280;2213;49.720;7.296;2024-02-14T10:44:03;98452.50;;;8.74;100.00
4398;BME280;2213;49.720;7.296;2024-02-14T10:46:33;98450.19;;;8.79;100.00
4398;BME280;2213;49.720;7.296;2024-02-14T10:49:04;98449.72;;;8.84;100.00
4398;BME280;2213;49.720;7.296;2024-02-14T10:51:35;98445.13;;;8.86;100.00
4398;BME280;2213;49.720;7.296;2024-02-14T10:54:09;98441.53;;;8.87;100.00
4398;BME280;2213;49.720;7.296;2024-02-14T10:56:42;98439.28;;;8.92;100.00
4398;BME280;2213;49.720;7.296;2024-02-14T10:59:17;98441.53;;;8.95;100.00
4398;BME280;2213;49.720;7.296;2024-02-14T11:01:48;98431.75;;;8.97;100.00
4398;BME280;2213;49.720;7.296;2024-02-14T11:04:18;98431.59;;;8.98;100.00
4398;BME280;2213;49.720;7.296;2024-02-14T11:06:52;98448.69;;;9.01;100.00
4398;BME280;2213;49.720;7.296;2024-02-14T11:09:22;98448.50;;;9.02;100.00
4398;BME280;2213;49.720;7.296;2024-02-14T11:12:00;98448.81;;;9.07;100.00
4398;BME280;2213;49.720;7.296;2024-02-14T11:14:31;98451.09;;;9.10;100.00
4398;BME280;2213;49.720;7.296;2024-02-14T11:17:03;98456.78;;;9.14;100.00
4398;BME280;2213;49.720;7.296;2024-02-14T11:19:33;98448.63;;;9.17;100.00
4398;BME280;2213;49.720;7.296;2024-02-14T11:22:17;98442.44;;;9.18;100.00
4398;BME280;2213;49.720;7.296;2024-02-14T11:24:47;98436.91;;;9.13;100.00
4398;BME280;2213;49.720;7.296;2024-02-14T11:27:18;98446.22;;;9.16;100.00
4398;BME280;2213;49.720;7.296;2024-02-14T11:30:00;98440.16;;;9.15;100.00
4398;BME280;2213;49.720;7.296;2024-02-14T11:32:32;98444.06;;;9.19;100.00
4398;BME280;2213;49.720;7.296;2024-02-14T11:35:01;98434.94;;;9.15;100.00
4398;BME280;2213;49.720;7.296;2024-02-14T11:37:33;98439.34;;;9.15;100.00
4398;BME280;2213;49.720;7.296;2024-02-14T11:40:02;98433.78;;;9.18;100.00
4398;BME280;2213;49.720;7.296;2024-02-14T11:42:32;98435.09;;;9.22;100.00
4398;BME280;2213;49.720;7.296;2024-02-14T11:45:02;98415.84;;;9.23;100.00
4398;BME280;2213;49.720;7.296;2024-02-14T11:47:31;98435.38;;;9.27;100.00
4398;BME280;2213;49.720;7.296;2024-02-14T11:50:00;98426.25;;;9.31;100.00
4398;BME280;2213;49.720;7.296;2024-02-14T11:52:30;98422.50;;;9.33;100.00
4398;BME280;2213;49.720;7.296;2024-02-14T11:54:58;98414.47;;;9.35;100.00
4398;BME280;2213;49.720;7.296;2024-02-14T11:57:27;98396.06;;;9.36;100.00
4398;BME280;2213;49.720;7.296;2024-02-14T11:59:58;98402.41;;;9.34;100.00
4398;BME280;2213;49.720;7.296;2024-02-14T12:02:27;98411.53;;;9.38;100.00
4398;BME280;2213;49.720;7.296;2024-02-14T12:04:56;98404.53;;;9.38;100.00
4398;BME280;2213;49.720;7.296;2024-02-14T12:07:26;98411.53;;;9.38;100.00
4398;BME280;2213;49.720;7.296;2024-02-14T12:09:55;98400.59;;;9.42;100.00
4398;BME280;2213;49.720;7.296;2024-02-14T12:12:24;98395.03;;;9.45;100.00
4398;BME280;2213;49.720;7.296;2024-02-14T12:14:53;98399.75;;;9.50;100.00
4398;BME280;2213;49.720;7.296;2024-02-14T12:17:23;98401.19;;;9.52;100.00
4398;BME280;2213;49.720;7.296;2024-02-14T12:19:51;98404.91;;;9.58;100.00
4398;BME280;2213;49.720;7.296;2024-02-14T12:22:20;98404.72;;;9.59;100.00
4398;BME280;2213;49.720;7.296;2024-02-14T12:24:49;98410.59;;;9.61;100.00
4398;BME280;2213;49.720;7.296;2024-02-14T12:27:19;98410.28;;;9.65;100.00
4398;BME280;2213;49.720;7.296;2024-02-14T12:29:48;98411.41;;;9.62;100.00
4398;BME280;2213;49.720;7.296;2024-02-14T12:32:17;98409.44;;;9.64;100.00
4398;BME280;2213;49.720;7.296;2024-02-14T12:34:47;98409.25;;;9.66;100.00
4398;BME280;2213;49.720;7.296;2024-02-14T12:37:16;98407.66;;;9.65;100.00
4398;BME280;2213;49.720;7.296;2024-02-14T12:39:44;98407.78;;;9.71;100.00
4398;BME280;2213;49.720;7.296;2024-02-14T12:42:13;98397.16;;;9.73;100.00
4398;BME280;2213;49.720;7.296;2024-02-14T12:44:41;98393.22;;;9.77;100.00
4398;BME280;2213;49.720;7.296;2024-02-14T12:47:10;98397.44;;;9.78;100.00
4398;BME280;2213;49.720;7.296;2024-02-14T12:49:39;98395.66;;;9.78;100.00
4398;BME280;2213;49.720;7.296;2024-02-14T12:52:09;98398.06;;;9.80;100.00
4398;BME280;2213;49.720;7.296;2024-02-14T12:54:37;98394.66;;;9.79;100.00
4398;BME280;2213;49.720;7.296;2024-02-14T12:57:06;98390.91;;;9.82;100.00
4398;BME280;2213;49.720;7.296;2024-02-14T12:59:35;98401.97;;;9.84;100.00
4398;BME280;2213;49.720;7.296;2024-02-14T13:02:04;98410.78;;;9.83;100.00
4398;BME280;2213;49.720;7.296;2024-02-14T13:04:34;98399.38;;;9.84;100.00
4398;BME280;2213;49.720;7.296;2024-02-14T13:07:03;98392.97;;;9.86;100.00
4398;BME280;2213;49.720;7.296;2024-02-14T13:09:33;98403.06;;;9.89;100.00
4398;BME280;2213;49.720;7.296;2024-02-14T13:12:03;98403.53;;;9.93;100.00
4398;BME280;2213;49.720;7.296;2024-02-14T13:14:33;98400.28;;;9.91;100.00
4398;BME280;2213;49.720;7.296;2024-02-14T13:17:02;98397.69;;;9.91;100.00
4398;BME280;2213;49.720;7.296;2024-02-14T13:19:32;98399.94;;;9.94;100.00
4398;BME280;2213;49.720;7.296;2024-02-14T13:22:01;98400.75;;;9.94;100.00
4398;BME280;2213;49.720;7.296;2024-02-14T13:24:29;98404.81;;;9.97;100.00
4398;BME280;2213;49.720;7.296;2024-02-14T13:26:59;98404.81;;;9.97;100.00
4398;BME280;2213;49.720;7.296;2024-02-14T13:29:28;98400.41;;;9.97;100.00
4398;BME280;2213;49.720;7.296;2024-02-14T13:31:56;98394.00;;;10.00;100.00
4398;BME280;2213;49.720;7.296;2024-02-14T13:34:26;98391.41;;;10.00;100.00